createdAt,value
2018-11-26T00:00:41.395Z,10.97
2018-11-26T00:03:11.048Z,10.57
2018-11-26T00:05:40.292Z,9.40
2018-11-26T00:08:09.924Z,10.77
2018-11-26T00:10:49.701Z,9.27
2018-11-26T00:13:18.110Z,9.50
2018-11-26T00:15:46.561Z,10.30
2018-11-26T00:18:15.064Z,11.07
2018-11-26T00:20:43.478Z,11.53
2018-11-26T00:23:11.797Z,11.17
2018-11-26T00:25:40.173Z,8.47
2018-11-26T00:28:08.617Z,9.30
2018-11-26T00:30:36.985Z,9.63
2018-11-26T00:33:05.580Z,9.10
2018-11-26T00:35:33.929Z,10.70
2018-11-26T00:38:02.427Z,10.60
2018-11-26T00:40:30.743Z,8.40
2018-11-26T00:42:59.044Z,9.40
2018-11-26T00:45:27.447Z,10.83
2018-11-26T00:47:55.865Z,9.53
2018-11-26T00:50:24.201Z,9.23
2018-11-26T00:52:52.585Z,8.60
2018-11-26T00:55:20.951Z,7.70
2018-11-26T00:57:49.331Z,11.10
2018-11-26T01:00:18.801Z,9.20
2018-11-26T01:02:47.226Z,8.87
2018-11-26T01:05:34.343Z,9.63
2018-11-26T01:08:02.787Z,9.07
2018-11-26T01:10:31.180Z,10.07
2018-11-26T01:12:59.569Z,8.83
2018-11-26T01:15:28.018Z,10.70
2018-11-26T01:17:56.489Z,11.33
2018-11-26T01:20:24.817Z,7.97
2018-11-26T01:22:53.207Z,9.10
2018-11-26T01:25:21.531Z,7.90
2018-11-26T01:27:49.876Z,8.57
2018-11-26T01:30:18.207Z,10.23
2018-11-26T01:32:46.585Z,8.57
2018-11-26T01:35:14.995Z,9.70
2018-11-26T01:37:43.344Z,7.90
2018-11-26T01:40:20.077Z,9.33
2018-11-26T01:42:48.643Z,8.93
2018-11-26T01:45:16.980Z,9.43
2018-11-26T01:47:45.379Z,9.37
2018-11-26T01:50:13.763Z,9.27
2018-11-26T01:52:42.145Z,10.87
2018-11-26T01:55:10.994Z,7.97
2018-11-26T01:57:39.486Z,9.23
2018-11-26T02:00:15.139Z,9.33
2018-11-26T02:02:43.567Z,9.77
2018-11-26T02:05:12.043Z,8.57
2018-11-26T02:07:40.458Z,10.13
2018-11-26T02:10:12.748Z,9.20
2018-11-26T02:12:41.224Z,11.70
2018-11-26T02:15:12.717Z,11.40
2018-11-26T02:17:41.117Z,11.00
2018-11-26T02:20:10.415Z,11.57
2018-11-26T02:22:38.881Z,10.43
2018-11-26T02:25:08.301Z,12.10
2018-11-26T02:27:36.775Z,9.60
2018-11-26T02:30:05.903Z,11.30
2018-11-26T02:32:34.187Z,10.63
2018-11-26T02:35:02.576Z,11.07
2018-11-26T02:37:32.105Z,10.73
2018-11-26T02:40:00.464Z,12.53
2018-11-26T02:42:29.271Z,13.93
2018-11-26T02:44:59.095Z,11.93
2018-11-26T02:47:27.592Z,12.23
2018-11-26T02:49:55.992Z,12.97
2018-11-26T02:52:24.295Z,10.90
2018-11-26T02:54:52.667Z,12.63
2018-11-26T02:57:21.159Z,12.20
2018-11-26T02:59:49.527Z,12.97
2018-11-26T03:02:17.920Z,13.57
2018-11-26T03:04:46.301Z,11.53
2018-11-26T03:07:14.698Z,12.53
2018-11-26T03:09:43.181Z,14.67
2018-11-26T03:12:11.559Z,12.37
2018-11-26T03:14:39.924Z,12.27
2018-11-26T03:17:08.315Z,11.33
2018-11-26T03:19:38.652Z,13.53
2018-11-26T03:22:06.993Z,11.50
2018-11-26T03:24:35.435Z,12.90
2018-11-26T03:27:04.942Z,11.80
2018-11-26T03:29:33.250Z,12.17
2018-11-26T03:32:01.608Z,11.83
2018-11-26T03:34:30.429Z,11.43
2018-11-26T03:36:58.895Z,11.43
2018-11-26T03:39:27.305Z,12.33
2018-11-26T03:41:56.662Z,12.80
2018-11-26T03:44:26.446Z,12.50
2018-11-26T03:46:54.793Z,15.17
2018-11-26T03:49:24.549Z,13.03
2018-11-26T03:51:52.879Z,14.13
2018-11-26T03:54:21.282Z,11.80
2018-11-26T03:56:49.628Z,13.03
2018-11-26T03:59:18.053Z,11.30
2018-11-26T04:01:46.397Z,13.13
2018-11-26T04:04:14.749Z,13.10
2018-11-26T04:06:43.098Z,12.13
2018-11-26T04:09:11.454Z,14.37
2018-11-26T04:11:39.841Z,11.97
2018-11-26T04:17:14.424Z,13.53
2018-11-26T04:19:42.716Z,13.27
2018-11-26T04:22:12.016Z,12.10
2018-11-26T04:24:44.310Z,12.53
2018-11-26T04:27:12.737Z,13.03
2018-11-26T04:29:41.084Z,12.13
2018-11-26T04:32:09.433Z,11.57
2018-11-26T04:34:38.439Z,12.20
2018-11-26T04:37:08.832Z,13.47
2018-11-26T04:39:38.152Z,13.83
2018-11-26T04:42:07.487Z,11.73
2018-11-26T04:44:37.152Z,13.40
2018-11-26T04:47:05.568Z,12.23
2018-11-26T04:49:34.948Z,13.43
2018-11-26T04:52:04.302Z,12.00
2018-11-26T04:54:32.616Z,12.53
2018-11-26T04:57:03.344Z,11.33
2018-11-26T04:59:31.651Z,12.47
2018-11-26T05:02:01.122Z,12.80
2018-11-26T05:04:29.416Z,14.07
2018-11-26T05:06:57.789Z,12.20
2018-11-26T05:09:26.206Z,14.63
2018-11-26T05:11:54.716Z,14.73
2018-11-26T05:14:23.120Z,12.27
2018-11-26T05:16:51.547Z,12.87
2018-11-26T05:19:19.880Z,13.03
2018-11-26T05:21:48.157Z,13.90
2018-11-26T05:24:16.409Z,14.47
2018-11-26T05:26:46.167Z,15.80
2018-11-26T05:29:16.042Z,13.00
2018-11-26T05:31:44.407Z,15.33
2018-11-26T05:34:14.240Z,12.87
2018-11-26T05:36:42.568Z,14.30
2018-11-26T05:39:10.947Z,15.27
2018-11-26T05:41:39.431Z,13.80
2018-11-26T05:44:07.764Z,14.70
2018-11-26T05:46:37.964Z,14.83
2018-11-26T05:49:06.778Z,14.83
2018-11-26T05:51:35.064Z,14.40
2018-11-26T05:54:03.493Z,15.40
2018-11-26T05:56:31.971Z,16.33
2018-11-26T05:59:01.011Z,16.67
2018-11-26T06:01:29.452Z,15.07
2018-11-26T06:03:57.776Z,16.00
2018-11-26T06:06:26.090Z,15.33
2018-11-26T06:08:55.825Z,14.53
2018-11-26T06:11:24.255Z,14.63
2018-11-26T06:13:52.704Z,15.20
2018-11-26T06:16:21.031Z,14.20
2018-11-26T06:18:49.435Z,15.50
2018-11-26T06:21:17.913Z,12.90
2018-11-26T06:23:47.442Z,13.77
2018-11-26T06:26:15.776Z,16.37
2018-11-26T06:28:45.689Z,13.20
2018-11-26T06:31:14.045Z,15.43
2018-11-26T06:33:42.451Z,13.00
2018-11-26T06:36:10.850Z,17.93
2018-11-26T06:38:39.338Z,16.27
2018-11-26T06:41:07.722Z,15.87
2018-11-26T06:43:36.100Z,16.27
2018-11-26T06:46:04.509Z,15.30
2018-11-26T06:48:32.859Z,12.83
2018-11-26T06:51:01.199Z,14.17
2018-11-26T06:53:29.622Z,12.50
2018-11-26T06:55:57.957Z,14.60
2018-11-26T06:58:26.392Z,16.17
2018-11-26T07:00:54.905Z,15.97
2018-11-26T07:03:24.745Z,14.40
2018-11-26T07:05:53.107Z,14.97
2018-11-26T07:08:22.173Z,12.23
2018-11-26T07:10:50.608Z,14.90
2018-11-26T07:13:19.127Z,14.20
2018-11-26T07:15:48.523Z,14.57
2018-11-26T07:18:16.853Z,14.87
2018-11-26T07:20:45.240Z,15.70
2018-11-26T07:23:13.636Z,16.33
2018-11-26T07:25:42.042Z,14.70
2018-11-26T07:28:10.391Z,14.50
2018-11-26T07:30:38.784Z,14.13
2018-11-26T07:33:07.121Z,14.20
2018-11-26T07:35:37.574Z,16.20
2018-11-26T07:38:06.648Z,13.67
2018-11-26T07:40:36.468Z,14.30
2018-11-26T07:43:07.543Z,15.93
2018-11-26T07:45:36.150Z,13.37
2018-11-26T07:48:05.869Z,16.60
2018-11-26T07:50:34.912Z,15.30
2018-11-26T07:53:03.286Z,13.10
2018-11-26T07:55:31.660Z,15.47
2018-11-26T07:58:01.584Z,12.27
2018-11-26T08:00:29.931Z,12.07
2018-11-26T08:02:58.362Z,12.60
2018-11-26T08:05:26.731Z,15.97
2018-11-26T08:07:55.084Z,17.07
2018-11-26T08:10:24.635Z,18.47
2018-11-26T08:12:54.009Z,13.50
2018-11-26T08:15:29.016Z,13.77
2018-11-26T08:17:57.430Z,14.17
2018-11-26T08:20:26.984Z,16.30
2018-11-26T08:22:55.403Z,12.47
2018-11-26T08:25:24.403Z,14.90
2018-11-26T08:27:53.075Z,13.50
2018-11-26T08:30:23.532Z,13.37
2018-11-26T08:32:53.499Z,13.93
2018-11-26T08:35:21.910Z,12.50
2018-11-26T08:38:01.739Z,16.37
2018-11-26T08:40:31.417Z,16.97
2018-11-26T08:43:15.467Z,15.70
2018-11-26T08:45:52.440Z,16.13
2018-11-26T08:48:26.052Z,14.87
2018-11-26T08:50:55.529Z,16.17
2018-11-26T08:53:24.077Z,15.20
2018-11-26T08:55:53.684Z,13.80
2018-11-26T08:58:22.170Z,15.73
2018-11-26T09:00:56.083Z,16.10
2018-11-26T09:03:28.717Z,15.30
2018-11-26T09:06:01.973Z,13.83
2018-11-26T09:08:33.754Z,15.97
2018-11-26T09:11:03.008Z,17.80
2018-11-26T09:13:31.699Z,13.80
2018-11-26T09:16:00.141Z,15.87
2018-11-26T09:18:28.571Z,13.23
2018-11-26T09:20:57.484Z,15.07
2018-11-26T09:23:25.856Z,15.30
2018-11-26T09:25:54.278Z,14.67
2018-11-26T09:28:24.351Z,15.33
2018-11-26T09:30:52.711Z,14.07
2018-11-26T09:33:21.134Z,14.57
2018-11-26T09:35:49.583Z,17.80
2018-11-26T09:38:17.960Z,14.83
2018-11-26T09:40:46.330Z,14.27
2018-11-26T09:43:14.741Z,14.70
2018-11-26T09:45:43.056Z,13.37
2018-11-26T09:48:12.483Z,16.73
2018-11-26T09:50:40.912Z,16.80
2018-11-26T09:53:09.260Z,13.43
2018-11-26T09:55:37.596Z,14.93
2018-11-26T09:58:06.080Z,16.37
2018-11-26T10:00:35.345Z,16.90
2018-11-26T10:03:03.701Z,15.87
2018-11-26T10:05:33.594Z,15.30
2018-11-26T10:08:02.037Z,16.30
2018-11-26T10:10:30.469Z,18.10
2018-11-26T10:12:58.836Z,15.23
2018-11-26T10:15:27.751Z,15.20
2018-11-26T10:17:56.111Z,16.70
2018-11-26T10:20:25.998Z,14.33
2018-11-26T10:22:54.699Z,15.33
2018-11-26T10:25:23.574Z,13.43
2018-11-26T10:27:52.045Z,13.23
2018-11-26T10:30:23.385Z,13.80
2018-11-26T10:32:51.500Z,13.63
2018-11-26T10:35:20.408Z,14.60
2018-11-26T10:37:48.770Z,14.43
2018-11-26T10:40:20.223Z,14.57
2018-11-26T10:42:48.637Z,14.80
2018-11-26T10:45:20.011Z,19.40
2018-11-26T10:47:48.527Z,15.80
2018-11-26T10:50:18.449Z,14.93
2018-11-26T10:52:54.903Z,15.73
2018-11-26T10:55:24.915Z,17.67
2018-11-26T10:57:53.311Z,16.27
2018-11-26T11:00:27.150Z,15.40
2018-11-26T11:02:55.864Z,14.63
2018-11-26T11:05:23.918Z,14.13
2018-11-26T11:07:52.260Z,14.03
2018-11-26T11:10:23.881Z,13.77
2018-11-26T11:12:52.352Z,14.27
2018-11-26T11:15:20.784Z,17.57
2018-11-26T11:17:49.136Z,13.47
2018-11-26T11:20:20.664Z,15.03
2018-11-26T11:22:48.980Z,15.63
2018-11-26T11:25:18.079Z,14.63
2018-11-26T11:27:46.540Z,13.40
2018-11-26T11:30:16.975Z,16.57
2018-11-26T11:32:45.386Z,12.03
2018-11-26T11:35:14.477Z,15.50
2018-11-26T11:37:43.571Z,16.13
2018-11-26T11:40:14.449Z,16.63
2018-11-26T11:42:42.809Z,16.40
2018-11-26T11:45:12.246Z,14.80
2018-11-26T11:47:40.828Z,14.67
2018-11-26T11:50:13.139Z,14.40
2018-11-26T11:52:41.574Z,14.50
2018-11-26T11:55:11.933Z,13.87
2018-11-26T11:57:46.876Z,15.00
2018-11-26T12:00:26.866Z,13.97
2018-11-26T12:02:55.230Z,15.43
2018-11-26T12:05:23.631Z,15.70
2018-11-26T12:07:52.049Z,15.53
2018-11-26T12:10:20.467Z,16.40
2018-11-26T12:12:48.805Z,12.17
2018-11-26T12:15:17.620Z,13.70
2018-11-26T12:17:47.258Z,14.63
2018-11-26T12:20:15.739Z,16.33
2018-11-26T12:22:44.589Z,17.37
2018-11-26T12:25:16.062Z,18.63
2018-11-26T12:27:46.043Z,14.60
2018-11-26T12:30:24.252Z,15.43
2018-11-26T12:32:52.711Z,14.87
2018-11-26T12:35:21.693Z,14.70
2018-11-26T12:37:50.074Z,15.73
2018-11-26T12:40:20.693Z,17.00
2018-11-26T12:42:49.987Z,14.27
2018-11-26T12:45:28.249Z,13.87
2018-11-26T12:47:56.680Z,14.97
2018-11-26T12:50:25.150Z,13.93
2018-11-26T12:52:53.545Z,13.50
2018-11-26T12:55:22.848Z,15.67
2018-11-26T12:57:51.922Z,13.83
2018-11-26T13:00:23.479Z,13.97
2018-11-26T13:03:00.063Z,15.13
2018-11-26T13:05:28.415Z,16.60
2018-11-26T13:07:56.798Z,16.23
2018-11-26T13:10:25.124Z,16.97
2018-11-26T13:12:54.027Z,17.43
2018-11-26T13:15:23.518Z,19.73
2018-11-26T13:17:53.674Z,17.63
2018-11-26T13:20:23.827Z,17.50
2018-11-26T13:22:52.714Z,14.40
2018-11-26T13:25:28.867Z,15.17
2018-11-26T13:28:01.455Z,15.63
2018-11-26T13:30:32.180Z,15.87
2018-11-26T13:33:04.742Z,21.27
2018-11-26T13:35:33.218Z,19.13
2018-11-26T13:38:01.679Z,27.20
2018-11-26T13:40:30.210Z,27.87
2018-11-26T13:42:58.652Z,21.17
2018-11-26T13:45:31.084Z,17.73
2018-11-26T13:47:59.471Z,14.27
2018-11-26T13:50:31.540Z,12.17
2018-11-26T13:52:59.911Z,15.27
2018-11-26T13:55:28.230Z,15.33
2018-11-26T13:57:56.520Z,16.70
2018-11-26T14:00:25.032Z,16.40
2018-11-26T14:02:53.408Z,16.87
2018-11-26T14:05:22.887Z,23.00
2018-11-26T14:07:51.328Z,19.77
2018-11-26T14:10:22.646Z,20.63
2018-11-26T14:13:15.127Z,31.00
2018-11-26T14:15:43.595Z,24.57
2018-11-26T14:18:11.946Z,34.70
2018-11-26T14:20:40.542Z,59.40
2018-11-26T14:23:09.102Z,42.93
2018-11-26T14:25:37.487Z,44.37
2018-11-26T14:28:06.270Z,46.00
2018-11-26T14:30:34.567Z,37.87
2018-11-26T14:33:02.960Z,29.00
2018-11-26T14:35:31.271Z,28.27
2018-11-26T14:38:02.492Z,39.03
2018-11-26T14:40:34.484Z,30.53
2018-11-26T14:43:02.975Z,35.40
2018-11-26T14:45:32.343Z,31.93
2018-11-26T14:48:02.142Z,28.77
2018-11-26T14:50:34.480Z,29.57
2018-11-26T14:53:06.049Z,30.03
2018-11-26T14:55:37.264Z,29.37
2018-11-26T14:58:12.539Z,27.73
2018-11-26T15:00:41.906Z,27.60
2018-11-26T15:03:12.757Z,27.03
2018-11-26T15:05:41.271Z,33.87
2018-11-26T15:08:14.269Z,32.97
2018-11-26T15:10:42.620Z,31.87
2018-11-26T15:13:15.180Z,29.27
2018-11-26T15:15:44.799Z,28.23
2018-11-26T15:18:20.147Z,28.80
2018-11-26T15:20:55.112Z,29.80
2018-11-26T15:23:27.436Z,23.93
2018-11-26T15:26:04.710Z,27.07
2018-11-26T15:28:33.093Z,27.17
2018-11-26T15:31:02.469Z,26.40
2018-11-26T15:33:34.726Z,30.80
2018-11-26T15:36:03.285Z,25.60
2018-11-26T15:38:33.687Z,28.67
2018-11-26T15:41:06.318Z,27.00
2018-11-26T15:43:34.785Z,24.70
2018-11-26T15:46:03.294Z,26.03
2018-11-26T15:48:31.771Z,22.20
2018-11-26T15:51:00.462Z,25.53
2018-11-26T15:53:28.939Z,22.80
2018-11-26T15:55:57.349Z,27.67
2018-11-26T15:58:25.727Z,24.27
2018-11-26T16:00:54.105Z,27.03
2018-11-26T16:03:22.534Z,28.50
2018-11-26T16:05:51.046Z,23.77
2018-11-26T16:08:19.538Z,25.03
2018-11-26T16:10:49.016Z,28.10
2018-11-26T16:13:19.403Z,23.53
2018-11-26T16:15:57.206Z,22.17
2018-11-26T16:18:25.736Z,24.43
2018-11-26T16:21:01.036Z,23.43
2018-11-26T16:23:31.383Z,25.63
2018-11-26T16:26:01.081Z,21.87
2018-11-26T16:28:32.060Z,23.50
2018-11-26T16:31:00.513Z,23.47
2018-11-26T16:33:30.899Z,24.50
2018-11-26T16:35:59.261Z,22.47
2018-11-26T16:38:29.647Z,23.87
2018-11-26T16:41:02.093Z,23.97
2018-11-26T16:43:31.501Z,23.50
2018-11-26T16:46:06.608Z,25.87
2018-11-26T16:48:36.115Z,23.87
2018-11-26T16:51:05.333Z,23.50
2018-11-26T16:53:37.549Z,21.57
2018-11-26T16:56:06.102Z,22.97
2018-11-26T16:58:34.487Z,26.87
2018-11-26T17:01:03.243Z,25.47
2018-11-26T17:03:31.651Z,25.20
2018-11-26T17:06:01.060Z,26.40
2018-11-26T17:08:29.666Z,23.87
2018-11-26T17:10:58.135Z,26.03
2018-11-26T17:13:26.545Z,25.70
2018-11-26T17:15:55.002Z,30.30
2018-11-26T17:18:23.559Z,28.53
2018-11-26T17:20:51.956Z,29.73
2018-11-26T17:23:20.429Z,33.90
2018-11-26T17:25:48.974Z,34.13
2018-11-26T17:28:17.404Z,26.83
2018-11-26T17:30:45.876Z,33.47
2018-11-26T17:33:14.313Z,67.03
2018-11-26T17:35:43.398Z,44.73
2018-11-26T17:38:11.830Z,30.03
2018-11-26T17:40:40.638Z,30.37
2018-11-26T17:43:12.188Z,27.73
2018-11-26T17:45:40.875Z,23.20
2018-11-26T17:48:09.265Z,26.57
2018-11-26T17:50:40.166Z,26.60
2018-11-26T17:53:12.932Z,27.93
2018-11-26T17:55:46.346Z,28.37
2018-11-26T17:58:14.883Z,25.33
2018-11-26T18:00:44.222Z,28.27
2018-11-26T18:03:12.805Z,26.47
2018-11-26T18:05:42.204Z,27.50
2018-11-26T18:08:15.366Z,28.10
2018-11-26T18:10:43.767Z,30.73
2018-11-26T18:13:12.152Z,31.67
2018-11-26T18:15:40.860Z,30.33
2018-11-26T18:18:11.744Z,27.70
2018-11-26T18:20:40.439Z,28.93
2018-11-26T18:23:09.709Z,29.83
2018-11-26T18:25:38.206Z,29.10
2018-11-26T18:28:09.655Z,29.20
2018-11-26T18:30:39.734Z,27.77
2018-11-26T18:33:08.125Z,47.43
2018-11-26T18:35:36.983Z,58.23
2018-11-26T18:38:06.189Z,59.27
2018-11-26T18:40:35.391Z,37.33
2018-11-26T18:43:03.745Z,25.70
2018-11-26T18:45:32.112Z,25.53
2018-11-26T18:48:00.500Z,26.20
2018-11-26T18:50:28.893Z,23.43
2018-11-26T18:52:57.221Z,21.77
2018-11-26T18:55:25.708Z,23.57
2018-11-26T18:57:54.148Z,24.50
2018-11-26T19:00:27.934Z,22.40
2018-11-26T19:02:56.973Z,23.80
2018-11-26T19:05:25.364Z,21.53
2018-11-26T19:07:53.970Z,21.10
2018-11-26T19:10:30.555Z,20.43
2018-11-26T19:13:12.686Z,19.13
2018-11-26T19:15:42.873Z,19.63
2018-11-26T19:18:16.210Z,19.20
2018-11-26T19:20:44.518Z,20.00
2018-11-26T19:23:13.049Z,16.83
2018-11-26T19:25:41.534Z,17.77
2018-11-26T19:28:10.001Z,19.70
2018-11-26T19:30:38.561Z,23.53
2018-11-26T19:33:08.199Z,42.07
2018-11-26T19:35:36.601Z,27.87
2018-11-26T19:38:05.712Z,23.73
2018-11-26T19:40:34.211Z,23.87
2018-11-26T19:43:02.652Z,19.33
2018-11-26T19:45:31.091Z,20.07
2018-11-26T19:47:59.513Z,21.43
2018-11-26T19:50:27.871Z,19.00
2018-11-26T19:52:56.415Z,18.80
2018-11-26T19:55:26.576Z,21.37
2018-11-26T19:57:56.582Z,21.00
2018-11-26T20:00:29.991Z,18.43
2018-11-26T20:03:18.750Z,19.43
2018-11-26T20:05:54.743Z,22.07
2018-11-26T20:08:23.072Z,20.03
2018-11-26T20:10:51.447Z,18.20
2018-11-26T20:13:19.803Z,20.20
2018-11-26T20:15:48.192Z,17.03
2018-11-26T20:18:16.573Z,19.10
2018-11-26T20:20:44.936Z,23.17
2018-11-26T20:23:13.347Z,18.57
2018-11-26T20:25:41.785Z,20.83
2018-11-26T20:28:10.115Z,21.10
2018-11-26T20:30:38.710Z,13.43
2018-11-26T20:33:07.699Z,19.23
2018-11-26T20:35:36.093Z,17.73
2018-11-26T20:38:04.472Z,16.37
2018-11-26T20:40:32.819Z,15.80
2018-11-26T20:43:01.225Z,17.67
2018-11-26T20:45:29.562Z,17.07
2018-11-26T20:47:57.949Z,17.67
2018-11-26T20:50:27.696Z,17.63
2018-11-26T20:52:56.133Z,16.30
2018-11-26T20:55:25.503Z,15.87
2018-11-26T20:57:55.267Z,16.33
2018-11-26T21:00:25.003Z,16.17
2018-11-26T21:03:00.990Z,17.17
2018-11-26T21:05:29.440Z,20.80
2018-11-26T21:07:57.853Z,17.87
2018-11-26T21:10:26.350Z,17.63
2018-11-26T21:12:54.852Z,17.63
2018-11-26T21:15:23.384Z,18.17
2018-11-26T21:17:52.681Z,18.30
2018-11-26T21:20:23.511Z,18.23
2018-11-26T21:22:51.923Z,16.50
2018-11-26T21:25:20.423Z,16.77
2018-11-26T21:27:48.954Z,17.37
2018-11-26T21:30:18.351Z,17.07
2018-11-26T21:32:46.723Z,16.10
2018-11-26T21:35:18.521Z,19.60
2018-11-26T21:37:48.289Z,14.17
2018-11-26T21:40:20.289Z,15.00
2018-11-26T21:42:46.436Z,17.70
2018-11-26T21:45:16.752Z,17.20
2018-11-26T21:47:45.182Z,18.50
2018-11-26T21:50:14.362Z,17.33
2018-11-26T21:52:42.937Z,18.77
2018-11-26T21:55:13.463Z,17.33
2018-11-26T21:57:41.918Z,16.20
2018-11-26T22:00:19.954Z,15.63
2018-11-26T22:02:48.539Z,17.20
2018-11-26T22:05:16.946Z,15.67
2018-11-26T22:07:45.335Z,15.43
2018-11-26T22:10:21.641Z,18.03
2018-11-26T22:12:52.220Z,17.10
2018-11-26T22:15:20.729Z,16.80
2018-11-26T22:17:49.083Z,18.93
2018-11-26T22:20:20.716Z,20.37
2018-11-26T22:22:49.226Z,19.30
2018-11-26T22:25:18.821Z,17.83
2018-11-26T22:27:46.095Z,20.93
2018-11-26T22:30:22.401Z,20.97
2018-11-26T22:32:50.819Z,17.67
2018-11-26T22:35:19.227Z,18.33
2018-11-26T22:37:47.584Z,20.27
2018-11-26T22:40:18.840Z,21.67
2018-11-26T22:42:47.202Z,19.70
2018-11-26T22:45:26.117Z,19.33
2018-11-26T22:48:01.857Z,18.97
2018-11-26T22:50:30.247Z,21.07
2018-11-26T22:52:58.643Z,16.50
2018-11-26T22:55:27.010Z,16.50
2018-11-26T22:57:55.350Z,19.00
2018-11-26T23:00:29.085Z,18.63
2018-11-26T23:02:59.659Z,17.07
2018-11-26T23:05:28.056Z,14.83
2018-11-26T23:07:56.573Z,20.40
2018-11-26T23:10:24.953Z,21.67
2018-11-26T23:12:53.302Z,15.70
2018-11-26T23:15:21.703Z,18.20
2018-11-26T23:17:50.115Z,16.67
2018-11-26T23:20:19.391Z,21.13
2018-11-26T23:22:47.815Z,18.80
2018-11-26T23:25:17.384Z,17.70
2018-11-26T23:27:45.777Z,18.17
2018-11-26T23:30:22.026Z,16.63
2018-11-26T23:32:51.958Z,17.53
2018-11-26T23:35:20.300Z,16.00
2018-11-26T23:37:48.695Z,17.57
2018-11-26T23:40:17.077Z,21.30
2018-11-26T23:42:45.449Z,17.37
2018-11-26T23:45:21.808Z,17.10
2018-11-26T23:47:50.540Z,17.23
2018-11-26T23:50:18.855Z,18.03
2018-11-26T23:52:47.443Z,18.93
2018-11-26T23:55:17.704Z,21.93
2018-11-26T23:57:46.143Z,19.13
